Time;durP1;ratioP1;P1;durP2;ratioP2;P2;SDS_P1;SDS_P2;PMS_P1;PMS_P2;Temp;Humidity;BMP_temperature;BMP_pressure;BME280_temperature;BME280_humidity;BME280_pressure;Samples;Min_cycle;Max_cycle;Signal;HPM_P1;HPM_P2
2022/05/24 00:01:38;;;;;;;11.82;7.65;;;13.50;99.90;;;;;;5115733;27;20071;-78
2022/05/24 00:04:03;;;;;;;13.68;6.80;;;13.40;99.90;;;;;;5115612;27;20473;-78
2022/05/24 00:06:31;;;;;;;18.00;7.22;;;13.30;99.90;;;;;;5094896;27;20037;-79
2022/05/24 00:08:58;;;;;;;14.80;7.90;;;13.30;99.90;;;;;;5095683;28;20143;-79
2022/05/24 00:11:27;;;;;;;16.10;7.75;;;13.30;99.90;;;;;;5118587;27;20039;-79
2022/05/24 00:13:52;;;;;;;13.18;6.85;;;13.20;99.90;;;;;;5118563;27;20137;-79
2022/05/24 00:16:19;;;;;;;13.55;8.10;;;13.20;99.90;;;;;;5116017;27;20049;-79
2022/05/24 00:18:45;;;;;;;13.10;8.20;;;13.10;99.90;;;;;;5102699;27;20038;-79
2022/05/24 00:21:10;;;;;;;16.00;8.23;;;13.40;99.90;;;;;;5110064;27;20049;-78
2022/05/24 00:23:36;;;;;;;15.90;8.23;;;13.20;99.90;;;;;;5114631;27;20035;-77
2022/05/24 00:26:07;;;;;;;14.88;7.97;;;13.10;99.90;;;;;;5121921;27;20042;-79
2022/05/24 00:28:35;;;;;;;13.85;7.85;;;13.10;99.90;;;;;;5110436;27;20111;-78
2022/05/24 00:31:02;;;;;;;13.18;7.25;;;13.10;99.90;;;;;;5117367;27;20077;-79
2022/05/24 00:33:28;;;;;;;13.32;6.63;;;13.10;99.90;;;;;;5101513;27;20047;-78
2022/05/24 00:35:55;;;;;;;12.35;7.10;;;13.20;99.90;;;;;;5119200;27;20079;-78
2022/05/24 00:38:27;;;;;;;13.00;7.15;;;13.10;99.90;;;;;;5115966;27;20042;-78
2022/05/24 00:41:17;;;;;;;14.70;7.55;;;13.10;99.90;;;;;;5097344;27;20045;-79
2022/05/24 00:43:51;;;;;;;12.30;7.50;;;13.10;99.90;;;;;;5118080;27;20079;-79
2022/05/24 00:46:24;;;;;;;13.80;6.80;;;13.20;99.90;;;;;;5121170;27;20031;-79
2022/05/24 00:49:06;;;;;;;11.32;6.95;;;13.00;99.90;;;;;;5100487;27;20034;-80
2022/05/24 00:51:59;;;;;;;11.68;6.25;;;13.00;99.90;;;;;;5119486;27;20171;-79
2022/05/24 00:54:24;;;;;;;9.75;6.03;;;13.10;99.90;;;;;;5096570;27;20421;-79
2022/05/24 00:56:53;;;;;;;13.25;6.45;;;13.00;99.90;;;;;;5117240;27;20053;-79
2022/05/24 00:59:26;;;;;;;10.77;5.93;;;12.90;99.90;;;;;;5113056;27;20508;-78
2022/05/24 01:01:52;;;;;;;9.52;5.70;;;12.80;99.90;;;;;;5119041;27;20042;-78
2022/05/24 01:04:19;;;;;;;12.40;6.28;;;12.80;99.90;;;;;;5103331;27;20032;-79
2022/05/24 01:06:47;;;;;;;10.02;5.35;;;12.80;99.90;;;;;;5105204;27;20038;-78
2022/05/24 01:09:27;;;;;;;10.32;5.72;;;12.70;99.90;;;;;;5111133;27;20159;-78
2022/05/24 01:12:01;;;;;;;9.75;6.07;;;12.60;99.90;;;;;;5133972;27;20055;-79
2022/05/24 01:14:27;;;;;;;11.20;6.28;;;12.90;99.90;;;;;;5131050;27;20039;-78
2022/05/24 01:16:55;;;;;;;14.00;6.10;;;12.60;99.90;;;;;;5101169;27;20027;-79
2022/05/24 01:19:35;;;;;;;10.50;6.05;;;12.50;99.90;;;;;;5099051;27;20107;-78
2022/05/24 01:22:18;;;;;;;11.43;6.10;;;12.40;99.90;;;;;;5093869;27;20047;-78
2022/05/24 01:24:55;;;;;;;12.55;6.72;;;12.40;99.90;;;;;;5101284;27;20127;-79
2022/05/24 01:27:21;;;;;;;10.35;6.57;;;12.30;99.90;;;;;;5117015;27;20369;-79
2022/05/24 01:29:46;;;;;;;12.15;6.05;;;12.50;99.90;;;;;;5093538;27;20044;-79
2022/05/24 01:37:43;;;;;;;11.02;6.72;;;12.20;99.90;;;;;;5114867;27;20039;-78
2022/05/24 01:40:09;;;;;;;10.77;6.78;;;12.10;99.90;;;;;;5109175;27;20031;-78
2022/05/24 01:42:35;;;;;;;11.68;6.93;;;12.10;99.90;;;;;;5125159;27;20019;-77
2022/05/24 01:45:23;;;;;;;11.98;7.30;;;12.10;99.90;;;;;;5143160;27;20042;-79
2022/05/24 01:47:55;;;;;;;12.80;7.38;;;12.50;99.90;;;;;;5140265;27;20095;-77
2022/05/24 01:50:22;;;;;;;15.32;6.80;;;12.00;99.90;;;;;;5127060;27;20027;-78
2022/05/24 01:52:58;;;;;;;14.88;7.53;;;12.00;99.90;;;;;;5091413;27;20063;-77
2022/05/24 01:55:43;;;;;;;13.70;6.93;;;12.00;99.90;;;;;;5114152;27;20035;-79
2022/05/24 01:58:16;;;;;;;13.00;7.57;;;11.90;99.90;;;;;;5132875;27;20077;-79
2022/05/24 02:00:47;;;;;;;12.98;7.88;;;11.90;99.90;;;;;;5144182;27;20030;-79
2022/05/24 02:03:15;;;;;;;11.80;7.35;;;12.00;99.90;;;;;;5125346;27;20058;-79
2022/05/24 02:05:41;;;;;;;10.98;7.25;;;12.20;99.90;;;;;;5129559;27;20115;-79
2022/05/24 02:08:10;;;;;;;15.52;8.13;;;12.10;99.90;;;;;;5145966;27;20086;-79
2022/05/24 02:10:47;;;;;;;15.48;7.97;;;11.90;99.90;;;;;;5139677;27;20046;-79
2022/05/24 02:13:21;;;;;;;15.02;8.45;;;11.90;99.90;;;;;;5120591;27;20058;-79
2022/05/24 02:15:49;;;;;;;10.73;7.90;;;12.00;99.90;;;;;;5109304;27;20050;-79
2022/05/24 02:18:18;;;;;;;12.27;8.18;;;12.00;99.90;;;;;;5102180;27;20042;-79
2022/05/24 02:20:45;;;;;;;14.15;8.02;;;12.00;99.90;;;;;;5102683;27;20039;-80
2022/05/24 02:23:16;;;;;;;14.20;8.68;;;12.00;99.90;;;;;;5098532;27;20035;-79
2022/05/24 02:25:43;;;;;;;15.80;8.38;;;12.50;99.90;;;;;;5107761;27;20034;-79
2022/05/24 02:28:10;;;;;;;12.55;9.23;;;12.20;99.90;;;;;;5136658;27;20038;-79
2022/05/24 02:31:04;;;;;;;14.10;9.00;;;12.10;99.90;;;;;;5118837;27;20038;-79
2022/05/24 02:33:30;;;;;;;14.98;9.02;;;12.10;99.90;;;;;;5112190;27;21046;-79
2022/05/24 02:35:56;;;;;;;12.35;8.23;;;12.20;99.90;;;;;;5099435;27;20047;-79
2022/05/24 02:38:22;;;;;;;17.45;9.10;;;12.20;99.90;;;;;;5118569;27;20054;-79
2022/05/24 02:43:32;;;;;;;15.55;9.70;;;12.40;99.90;;;;;;5121983;27;20039;-79
2022/05/24 02:45:58;;;;;;;14.95;9.05;;;12.30;99.90;;;;;;5118747;27;20462;-79
2022/05/24 02:48:24;;;;;;;14.68;9.70;;;12.40;99.90;;;;;;5122790;27;20038;-79
2022/05/24 02:50:50;;;;;;;15.27;9.32;;;12.60;99.90;;;;;;5113786;27;20464;-79
2022/05/24 02:53:15;;;;;;;16.35;9.55;;;12.50;99.90;;;;;;5119451;27;20041;-79
2022/05/24 02:55:41;;;;;;;16.40;9.50;;;13.00;99.90;;;;;;5101432;27;20043;-79
2022/05/24 02:58:08;;;;;;;14.95;9.93;;;12.50;99.90;;;;;;5101820;27;20111;-79
2022/05/24 03:00:34;;;;;;;16.48;9.65;;;12.60;99.90;;;;;;5117944;27;20039;-79
2022/05/24 03:02:59;;;;;;;15.85;9.70;;;12.50;99.90;;;;;;5101739;27;20491;-79
2022/05/24 03:05:26;;;;;;;19.17;10.32;;;12.60;99.90;;;;;;5102229;27;20035;-79
2022/05/24 03:10:37;;;;;;;16.45;10.45;;;12.60;99.90;;;;;;5120384;27;20035;-79
2022/05/24 03:19:24;;;;;;;17.20;11.55;;;12.70;99.90;;;;;;5129671;27;20125;-77
2022/05/24 03:21:53;;;;;;;19.35;12.00;;;12.70;99.90;;;;;;5109419;27;20116;-79
2022/05/24 03:24:21;;;;;;;21.20;13.30;;;12.80;99.90;;;;;;5101815;27;20042;-79
2022/05/24 03:26:47;;;;;;;21.27;13.90;;;12.90;99.90;;;;;;5115644;27;20184;-79
2022/05/24 03:29:13;;;;;;;23.02;15.43;;;13.40;99.90;;;;;;5100011;27;20117;-79
2022/05/24 03:31:39;;;;;;;25.92;15.68;;;12.90;99.90;;;;;;5104532;27;20039;-79
2022/05/24 03:34:05;;;;;;;26.75;16.27;;;13.00;99.90;;;;;;5109339;27;20055;-80
2022/05/24 03:36:31;;;;;;;23.50;15.90;;;13.00;99.90;;;;;;5115556;27;20138;-79
2022/05/24 03:38:56;;;;;;;25.17;16.02;;;13.10;99.90;;;;;;5104782;27;20047;-79
2022/05/24 03:41:22;;;;;;;24.75;16.38;;;13.00;99.90;;;;;;5111877;27;20042;-79
2022/05/24 03:43:48;;;;;;;27.85;17.63;;;13.00;99.90;;;;;;5130799;27;20105;-79
2022/05/24 03:46:13;;;;;;;26.35;17.67;;;13.00;99.90;;;;;;5120327;27;20043;-80
2022/05/24 03:48:39;;;;;;;26.35;18.05;;;13.10;99.90;;;;;;5104496;27;20522;-79
2022/05/24 03:51:05;;;;;;;28.95;18.85;;;13.10;99.90;;;;;;5139495;27;20031;-79
2022/05/24 03:53:31;;;;;;;29.08;19.58;;;13.60;99.90;;;;;;5096452;27;20042;-80
2022/05/24 03:55:57;;;;;;;34.03;20.98;;;13.20;99.90;;;;;;5103801;27;20470;-80
2022/05/24 03:58:23;;;;;;;35.03;21.60;;;13.10;99.90;;;;;;5093433;27;20477;-81
2022/05/24 04:00:50;;;;;;;32.33;21.83;;;13.20;99.90;;;;;;5116514;27;20045;-79
2022/05/24 04:03:16;;;;;;;34.08;22.48;;;13.90;99.90;;;;;;5121578;27;20035;-80
2022/05/24 04:05:43;;;;;;;36.95;22.23;;;13.20;99.90;;;;;;5122808;27;20042;-80
2022/05/24 04:08:09;;;;;;;35.80;21.60;;;13.20;99.90;;;;;;5096651;27;20041;-80
2022/05/24 04:10:35;;;;;;;35.33;22.35;;;13.20;99.90;;;;;;5134452;27;20030;-80
2022/05/24 04:13:03;;;;;;;34.15;22.13;;;13.20;99.90;;;;;;5118782;27;20127;-80
2022/05/24 04:15:29;;;;;;;31.65;21.80;;;13.20;99.90;;;;;;5103420;27;20035;-80
2022/05/24 04:17:55;;;;;;;32.53;22.50;;;13.30;99.90;;;;;;5101005;27;20073;-79
2022/05/24 04:20:24;;;;;;;34.13;22.65;;;13.40;99.90;;;;;;5115613;27;20104;-79
2022/05/24 04:22:52;;;;;;;34.50;22.95;;;13.30;99.90;;;;;;5098018;27;20042;-79
2022/05/24 04:25:18;;;;;;;32.30;21.83;;;13.40;99.90;;;;;;5121210;27;20043;-79
2022/05/24 04:27:44;;;;;;;30.40;20.85;;;13.40;99.90;;;;;;5124277;27;20030;-79
2022/05/24 04:30:11;;;;;;;28.17;20.08;;;13.50;99.90;;;;;;5101030;27;20022;-79
2022/05/24 04:32:37;;;;;;;29.17;19.15;;;13.50;99.90;;;;;;5134421;27;20041;-79
2022/05/24 04:35:03;;;;;;;29.75;19.02;;;13.50;99.90;;;;;;5103326;27;20039;-79
2022/05/24 04:37:29;;;;;;;26.90;18.48;;;13.50;99.90;;;;;;5120778;27;20479;-78
2022/05/24 04:39:54;;;;;;;27.83;18.80;;;13.60;99.90;;;;;;5118074;27;20048;-79
2022/05/24 04:42:23;;;;;;;25.20;18.05;;;13.60;99.90;;;;;;5104027;27;20031;-79
2022/05/24 04:44:56;;;;;;;25.48;17.52;;;13.60;99.90;;;;;;5109701;27;20044;-77
2022/05/24 04:47:23;;;;;;;26.30;17.20;;;13.50;99.90;;;;;;5127143;27;20042;-76
2022/05/24 04:49:54;;;;;;;28.10;18.73;;;13.60;99.90;;;;;;5099105;27;20046;-78
2022/05/24 04:52:21;;;;;;;32.45;18.70;;;13.70;99.90;;;;;;5103019;27;20058;-79
2022/05/24 04:54:47;;;;;;;25.95;17.90;;;14.10;99.90;;;;;;5096939;27;20081;-79
2022/05/24 04:57:13;;;;;;;25.63;17.65;;;13.60;99.90;;;;;;5100856;27;20131;-79
2022/05/24 04:59:39;;;;;;;26.38;17.27;;;13.70;99.90;;;;;;5096371;27;20517;-79
2022/05/24 05:02:05;;;;;;;26.58;16.75;;;13.70;99.90;;;;;;5108693;27;20118;-78
2022/05/24 05:04:31;;;;;;;20.23;11.40;;;13.80;99.90;;;;;;5098874;27;20035;-76
2022/05/24 05:06:57;;;;;;;17.70;9.85;;;14.00;99.90;;;;;;5105125;27;20042;-76
2022/05/24 05:09:23;;;;;;;18.60;11.57;;;14.30;99.90;;;;;;5097830;27;20080;-75
2022/05/24 05:11:49;;;;;;;22.17;11.05;;;14.60;99.90;;;;;;5104060;27;20094;-76
2022/05/24 05:14:15;;;;;;;16.65;8.40;;;14.80;99.90;;;;;;5125193;27;20070;-75
2022/05/24 05:16:41;;;;;;;19.52;8.95;;;15.00;99.90;;;;;;5122533;27;20134;-76
2022/05/24 05:19:12;;;;;;;16.92;11.98;;;15.10;99.90;;;;;;5098384;27;20076;-77
2022/05/24 05:21:40;;;;;;;13.52;8.23;;;15.20;99.90;;;;;;5120982;27;20042;-75
2022/05/24 05:24:06;;;;;;;19.15;9.10;;;15.30;99.90;;;;;;5092104;27;20066;-77
2022/05/24 05:26:33;;;;;;;18.75;11.02;;;15.30;99.90;;;;;;5095999;27;20103;-77
2022/05/24 05:28:59;;;;;;;15.35;7.45;;;15.10;99.90;;;;;;5117576;27;20089;-77
2022/05/24 05:31:28;;;;;;;17.05;10.75;;;15.20;99.90;;;;;;5119867;27;20085;-75
2022/05/24 05:33:56;;;;;;;16.88;11.32;;;15.30;99.90;;;;;;5120647;27;20095;-75
2022/05/24 05:36:22;;;;;;;16.40;9.57;;;15.20;99.90;;;;;;5117050;27;20431;-77
2022/05/24 05:38:51;;;;;;;21.85;7.95;;;15.10;99.90;;;;;;5122674;27;20387;-77
2022/05/24 05:41:22;;;;;;;17.17;9.00;;;15.30;99.90;;;;;;5119489;27;20038;-76
2022/05/24 05:43:49;;;;;;;21.60;10.77;;;15.30;99.90;;;;;;5124662;27;20119;-78
2022/05/24 05:46:16;;;;;;;14.88;9.88;;;15.20;99.90;;;;;;5103079;27;20039;-80
2022/05/24 05:48:44;;;;;;;18.48;10.93;;;15.10;99.90;;;;;;5107137;27;20122;-78
2022/05/24 05:51:11;;;;;;;16.42;8.65;;;14.90;99.90;;;;;;5102242;27;20042;-76
2022/05/24 05:53:38;;;;;;;20.27;11.07;;;14.90;99.90;;;;;;5098711;27;20139;-77
2022/05/24 05:56:07;;;;;;;21.50;11.40;;;15.00;99.90;;;;;;5101343;27;20074;-75
2022/05/24 05:58:33;;;;;;;19.63;8.45;;;14.80;99.90;;;;;;5119579;27;20038;-77
2022/05/24 06:01:00;;;;;;;17.98;10.60;;;14.90;99.90;;;;;;5106863;27;20053;-77
2022/05/24 06:03:26;;;;;;;19.52;11.35;;;14.90;99.90;;;;;;5100299;27;20043;-77
2022/05/24 06:05:54;;;;;;;19.02;11.23;;;15.00;99.90;;;;;;5104171;27;20378;-75
2022/05/24 06:08:19;;;;;;;20.30;12.52;;;14.80;99.90;;;;;;5121528;27;20505;-76
2022/05/24 06:10:46;;;;;;;20.58;11.73;;;14.50;99.90;;;;;;5119466;27;20101;-76
2022/05/24 06:13:11;;;;;;;19.95;12.50;;;14.60;99.90;;;;;;5123885;27;20051;-77
2022/05/24 06:15:37;;;;;;;21.60;11.63;;;14.50;99.90;;;;;;5102053;27;20374;-75
2022/05/24 06:18:04;;;;;;;16.65;10.45;;;14.50;99.90;;;;;;5119526;27;20042;-77
2022/05/24 06:20:31;;;;;;;12.30;8.25;;;14.50;99.90;;;;;;5119174;27;20040;-77
2022/05/24 06:22:58;;;;;;;13.52;8.95;;;14.40;99.90;;;;;;5096118;27;20044;-80
2022/05/24 06:25:28;;;;;;;17.70;8.90;;;14.30;99.90;;;;;;5098455;27;20100;-81
2022/05/24 06:27:55;;;;;;;19.13;9.73;;;14.20;99.90;;;;;;5091938;27;20101;-81
2022/05/24 06:30:21;;;;;;;18.75;9.75;;;14.00;99.90;;;;;;5096174;27;20135;-77
2022/05/24 06:32:49;;;;;;;15.65;10.45;;;13.80;99.90;;;;;;5116041;27;20047;-78
2022/05/24 06:35:16;;;;;;;20.92;11.70;;;13.90;99.90;;;;;;5099104;27;20035;-78
2022/05/24 06:37:45;;;;;;;19.30;12.00;;;13.70;99.90;;;;;;5118697;27;20070;-78
2022/05/24 06:40:15;;;;;;;19.27;11.90;;;13.80;99.90;;;;;;5121643;27;20046;-79
2022/05/24 06:42:40;;;;;;;23.63;13.43;;;13.70;99.90;;;;;;5094327;28;20122;-78
2022/05/24 06:45:08;;;;;;;17.95;11.95;;;13.80;99.90;;;;;;5118761;27;20160;-79
2022/05/24 06:47:34;;;;;;;17.63;10.60;;;13.80;99.90;;;;;;5088853;27;20043;-79
2022/05/24 06:50:00;;;;;;;22.75;11.80;;;13.70;99.90;;;;;;5117595;27;20503;-78
2022/05/24 06:52:26;;;;;;;16.15;10.15;;;13.80;99.90;;;;;;5096242;27;20142;-79
2022/05/24 06:54:56;;;;;;;17.25;10.20;;;13.80;99.90;;;;;;5118016;27;20046;-80
2022/05/24 06:57:21;;;;;;;18.65;10.82;;;13.80;99.90;;;;;;5115990;27;20498;-80
2022/05/24 07:02:34;;;;;;;20.10;10.80;;;14.00;99.90;;;;;;5113421;27;20440;-80
2022/05/24 07:05:07;;;;;;;25.30;11.63;;;14.10;99.90;;;;;;5097828;28;20165;-80
2022/05/24 07:07:35;;;;;;;25.40;12.05;;;14.30;99.90;;;;;;5105672;27;20130;-80
2022/05/24 07:10:02;;;;;;;23.85;12.48;;;14.50;99.90;;;;;;5097421;27;20389;-81
2022/05/24 07:12:28;;;;;;;20.25;11.85;;;14.40;99.90;;;;;;5100623;27;20051;-80
2022/05/24 07:14:54;;;;;;;18.67;10.93;;;14.50;99.90;;;;;;5118099;27;20035;-80
2022/05/24 07:17:21;;;;;;;22.10;10.52;;;14.70;99.90;;;;;;5114825;27;20039;-80
2022/05/24 07:19:47;;;;;;;18.48;10.25;;;14.80;99.90;;;;;;5120294;27;20110;-80
2022/05/24 07:22:14;;;;;;;16.35;8.98;;;15.00;99.90;;;;;;5110228;27;20111;-80
2022/05/24 07:24:41;;;;;;;16.95;8.23;;;15.10;99.90;;;;;;5106920;27;20385;-81
2022/05/24 07:27:14;;;;;;;17.13;7.20;;;15.10;99.90;;;;;;5110855;27;20186;-80
2022/05/24 07:29:40;;;;;;;13.57;6.60;;;15.10;99.90;;;;;;5111338;27;20497;-80
2022/05/24 07:32:06;;;;;;;14.88;6.97;;;15.00;99.90;;;;;;5103642;28;20083;-81
2022/05/24 07:34:33;;;;;;;13.65;6.35;;;14.90;99.90;;;;;;5119750;27;20054;-78
2022/05/24 07:37:00;;;;;;;14.73;6.68;;;15.00;99.90;;;;;;5120045;27;20449;-78
2022/05/24 07:39:27;;;;;;;15.52;5.38;;;15.10;99.90;;;;;;5138825;27;20435;-77
2022/05/24 07:47:25;;;;;;;8.40;4.40;;;14.70;99.90;;;;;;5111523;27;20043;-79
2022/05/24 07:49:51;;;;;;;11.07;4.75;;;14.70;99.90;;;;;;5115199;27;20050;-80
2022/05/24 07:52:16;;;;;;;10.00;4.68;;;14.60;99.90;;;;;;5114195;27;20047;-79
2022/05/24 07:54:44;;;;;;;12.82;4.70;;;14.50;99.90;;;;;;5096110;27;20463;-79
2022/05/24 07:57:10;;;;;;;14.50;4.70;;;14.40;99.90;;;;;;5111854;28;20439;-79
2022/05/24 07:59:38;;;;;;;13.00;4.18;;;14.30;99.90;;;;;;5111636;27;20112;-79
2022/05/24 08:02:05;;;;;;;13.25;4.80;;;14.20;99.90;;;;;;5096122;28;20055;-80
2022/05/24 08:04:30;;;;;;;15.32;5.18;;;14.20;99.90;;;;;;5100225;27;20379;-80
2022/05/24 08:06:56;;;;;;;14.75;5.20;;;14.00;99.90;;;;;;5112455;27;20080;-79
2022/05/24 08:09:22;;;;;;;15.90;5.63;;;14.10;99.90;;;;;;5098231;27;20082;-79
2022/05/24 08:11:47;;;;;;;15.63;5.35;;;14.00;99.90;;;;;;5134477;27;20043;-78
2022/05/24 08:14:13;;;;;;;14.48;5.68;;;13.90;99.90;;;;;;5134514;27;20443;-79
2022/05/24 08:16:39;;;;;;;12.43;5.88;;;14.00;99.90;;;;;;5114899;27;20395;-79
2022/05/24 08:19:05;;;;;;;14.90;6.00;;;13.90;99.90;;;;;;5100915;27;20587;-79
2022/05/24 08:21:31;;;;;;;13.88;6.00;;;13.80;99.90;;;;;;5096087;27;20134;-79
2022/05/24 08:23:58;;;;;;;17.63;6.45;;;13.90;99.90;;;;;;5096460;27;20114;-78
2022/05/24 08:26:24;;;;;;;13.63;6.10;;;13.90;99.90;;;;;;5116003;27;20046;-79
2022/05/24 08:28:51;;;;;;;14.32;5.82;;;13.90;99.90;;;;;;5124398;27;20047;-78
2022/05/24 08:31:17;;;;;;;14.68;5.88;;;13.90;99.90;;;;;;5107876;27;20145;-78
2022/05/24 08:33:45;;;;;;;14.15;5.15;;;13.90;99.90;;;;;;5133534;27;20034;-78
2022/05/24 08:36:11;;;;;;;14.23;6.13;;;13.90;99.90;;;;;;5117484;27;20069;-78
2022/05/24 08:38:38;;;;;;;17.95;6.10;;;13.90;99.90;;;;;;5110954;27;20054;-78
2022/05/24 08:41:13;;;;;;;12.60;6.00;;;13.90;99.90;;;;;;5126415;27;20047;-78
2022/05/24 08:43:45;;;;;;;12.77;5.82;;;14.00;99.90;;;;;;5105066;27;20047;-78
2022/05/24 08:49:13;;;;;;;;;;;14.00;99.90;;;;;;5116888;27;20050;-79
2022/05/24 08:51:58;;;;;;;21.98;7.43;;;14.00;99.90;;;;;;5114226;27;19956;-79
2022/05/24 08:54:36;;;;;;;15.63;7.78;;;13.90;99.90;;;;;;5096016;28;20474;-78
2022/05/24 08:57:06;;;;;;;17.10;7.97;;;14.00;99.90;;;;;;5098667;27;20061;-79
2022/05/24 08:59:49;;;;;;;17.80;8.02;;;14.20;99.90;;;;;;5105811;27;20557;-78
2022/05/24 09:02:14;;;;;;;15.93;7.63;;;14.30;99.90;;;;;;5116879;27;20051;-77
2022/05/24 09:04:40;;;;;;;17.85;7.40;;;14.50;99.90;;;;;;5118262;27;20055;-77
2022/05/24 09:07:14;;;;;;;15.90;6.70;;;14.50;99.90;;;;;;5131540;27;20047;-76
2022/05/24 09:10:23;;;;;;;17.77;7.32;;;14.40;99.90;;;;;;5126948;27;20413;-78
2022/05/24 09:13:07;;;;;;;13.88;7.38;;;14.40;99.90;;;;;;5096849;28;20138;-77
2022/05/24 09:15:50;;;;;;;12.77;7.97;;;14.40;99.90;;;;;;5096122;28;20062;-77
2022/05/24 09:18:51;;;;;;;15.68;8.30;;;14.60;99.90;;;;;;5099177;27;20809;-78
2022/05/24 09:21:29;;;;;;;16.30;8.50;;;14.80;99.90;;;;;;5119337;28;20046;-77
2022/05/24 09:24:16;;;;;;;14.85;6.25;;;14.70;99.90;;;;;;5111998;28;20396;-78
2022/05/24 09:27:05;;;;;;;9.00;4.00;;;14.50;99.90;;;;;;5096940;28;20054;-77
2022/05/24 09:29:32;;;;;;;5.18;2.20;;;14.20;99.90;;;;;;5113912;28;20462;-78
2022/05/24 09:32:03;;;;;;;5.35;1.80;;;13.90;99.90;;;;;;5097093;28;20501;-77
2022/05/24 09:34:33;;;;;;;5.32;1.92;;;13.70;99.90;;;;;;5112530;28;20058;-78
2022/05/24 09:37:13;;;;;;;6.03;1.90;;;13.80;99.90;;;;;;5096535;28;20432;-78
2022/05/24 09:39:42;;;;;;;4.65;1.80;;;13.80;99.90;;;;;;5095737;28;20043;-77
2022/05/24 09:42:13;;;;;;;6.18;2.22;;;13.90;99.90;;;;;;5107536;27;20046;-78
2022/05/24 09:44:47;;;;;;;4.90;1.60;;;14.10;99.90;;;;;;5131928;27;20055;-78
2022/05/24 09:47:33;;;;;;;3.40;1.60;;;14.10;99.90;;;;;;5112163;27;20111;-78
2022/05/24 09:50:17;;;;;;;2.80;1.70;;;14.40;99.90;;;;;;5097458;28;20051;-78
2022/05/24 09:53:06;;;;;;;9.98;1.98;;;14.40;99.90;;;;;;5099174;28;20134;-78
2022/05/24 09:55:59;;;;;;;3.95;2.00;;;14.50;99.90;;;;;;5095344;28;20133;-78
2022/05/24 09:58:40;;;;;;;6.30;2.15;;;14.50;99.90;;;;;;5111171;27;20438;-77
2022/05/24 10:01:15;;;;;;;4.05;2.10;;;14.50;99.90;;;;;;5100533;28;20047;-78
2022/05/24 10:03:49;;;;;;;5.38;2.05;;;14.70;99.90;;;;;;5095147;28;20062;-78
2022/05/24 10:06:25;;;;;;;4.95;2.10;;;14.70;99.90;;;;;;5095714;28;20047;-78
2022/05/24 10:08:54;;;;;;;2.75;1.98;;;14.70;99.90;;;;;;5112196;27;20043;-78
2022/05/24 10:11:48;;;;;;;4.05;2.17;;;15.10;99.90;;;;;;5102580;28;20055;-78
2022/05/24 10:14:55;;;;;;;6.25;1.85;;;15.20;99.90;;;;;;5072056;28;20056;-79
2022/05/24 10:17:35;;;;;;;5.20;1.92;;;15.20;99.90;;;;;;5090607;28;20052;-78
2022/05/24 10:20:27;;;;;;;3.53;2.00;;;15.40;99.90;;;;;;5084241;28;20048;-78
2022/05/24 10:23:23;;;;;;;6.05;2.50;;;15.30;99.90;;;;;;5086420;28;20144;-79
2022/05/24 10:26:07;;;;;;;11.85;2.20;;;15.40;99.90;;;;;;5084830;28;20075;-79
2022/05/24 10:28:45;;;;;;;4.00;2.08;;;15.20;99.90;;;;;;5083327;28;20206;-78
2022/05/24 10:31:31;;;;;;;6.97;2.13;;;15.60;99.90;;;;;;5106504;28;20055;-79
2022/05/24 10:40:06;;;;;;;4.57;2.25;;;15.50;99.90;;;;;;5117819;27;20055;-77
2022/05/24 10:43:04;;;;;;;3.60;2.05;;;15.10;99.90;;;;;;5096089;28;20098;-77
2022/05/24 10:45:52;;;;;;;9.73;2.63;;;14.80;99.90;;;;;;5092843;28;20142;-78
2022/05/24 10:48:26;;;;;;;4.55;2.20;;;14.70;99.90;;;;;;5080987;28;20104;-75
2022/05/24 10:50:58;;;;;;;5.00;1.92;;;14.70;99.90;;;;;;5092615;28;20076;-73
2022/05/24 10:53:41;;;;;;;5.95;1.90;;;15.20;99.90;;;;;;5096098;28;20081;-74
2022/05/24 10:56:36;;;;;;;3.67;1.83;;;15.50;99.90;;;;;;5077881;28;20458;-75
2022/05/24 10:59:19;;;;;;;5.10;1.70;;;15.80;99.90;;;;;;5083522;28;20056;-73
2022/05/24 11:01:51;;;;;;;3.58;1.70;;;16.60;99.90;;;;;;5091543;28;20083;-73
2022/05/24 11:04:23;;;;;;;5.60;2.08;;;16.80;99.90;;;;;;5103154;27;20051;-75
2022/05/24 11:06:58;;;;;;;6.25;2.28;;;16.90;99.90;;;;;;5095254;28;20501;-74
2022/05/24 11:09:25;;;;;;;;;;;16.80;99.90;;;;;;5096161;28;20118;-75
2022/05/24 11:12:00;;;;;;;4.65;1.50;;;16.90;99.90;;;;;;5077059;27;20002;-75
2022/05/24 11:14:42;;;;;;;4.25;2.10;;;17.30;99.90;;;;;;5104705;27;20042;-76
2022/05/24 11:17:12;;;;;;;5.63;2.30;;;17.20;99.90;;;;;;5118210;27;20131;-75
2022/05/24 11:19:44;;;;;;;3.65;1.73;;;17.30;99.90;;;;;;5095825;27;20050;-74
2022/05/24 11:22:35;;;;;;;3.17;1.50;;;17.30;99.90;;;;;;5104511;27;20066;-75
2022/05/24 11:25:35;;;;;;;6.28;1.60;;;17.10;99.90;;;;;;5097867;27;20089;-74
2022/05/24 11:28:00;;;;;;;5.57;1.60;;;16.50;99.90;;;;;;5092201;27;20072;-75
2022/05/24 11:30:37;;;;;;;2.00;1.35;;;16.00;99.90;;;;;;5126765;27;20035;-76
2022/05/24 11:33:02;;;;;;;4.95;1.90;;;15.60;99.90;;;;;;5135072;27;20031;-76
2022/05/24 11:35:35;;;;;;;4.38;1.20;;;15.30;99.90;;;;;;5113115;27;20443;-75
2022/05/24 11:38:20;;;;;;;2.90;1.40;;;15.00;99.90;;;;;;5118746;27;20074;-77
2022/05/24 11:41:01;;;;;;;3.20;1.13;;;15.50;99.90;;;;;;5102185;27;20066;-78
2022/05/24 11:43:38;;;;;;;2.47;1.15;;;15.90;99.90;;;;;;5096249;27;20205;-77
2022/05/24 11:46:04;;;;;;;3.67;1.27;;;16.30;99.90;;;;;;5135769;27;20039;-79
2022/05/24 11:49:16;;;;;;;2.72;1.15;;;16.40;99.90;;;;;;5106861;27;20074;-77
2022/05/24 11:51:50;;;;;;;2.42;1.10;;;16.80;99.90;;;;;;5107880;27;20066;-78
2022/05/24 11:54:16;;;;;;;2.47;1.17;;;17.30;99.90;;;;;;5114814;27;20068;-75
2022/05/24 11:57:01;;;;;;;4.43;1.13;;;16.90;99.90;;;;;;5120761;27;20517;-75
2022/05/24 11:59:39;;;;;;;;;;;17.10;99.90;;;;;;5121622;27;20050;-74
2022/05/24 12:02:21;;;;;;;3.78;1.20;;;17.10;99.90;;;;;;5126471;27;19915;-74
2022/05/24 12:08:04;;;;;;;3.80;1.20;;;17.10;99.90;;;;;;5127822;27;20053;-74
2022/05/24 12:10:51;;;;;;;3.05;1.00;;;16.70;99.90;;;;;;5108216;27;20150;-74
2022/05/24 12:13:23;;;;;;;6.40;1.10;;;16.60;99.90;;;;;;5111690;27;20058;-75
2022/05/24 12:15:51;;;;;;;4.78;1.10;;;16.60;99.90;;;;;;5120221;27;20457;-74
2022/05/24 12:18:20;;;;;;;3.25;1.00;;;16.40;99.90;;;;;;5117627;27;20054;-75
2022/05/24 12:20:46;;;;;;;2.42;0.90;;;16.40;99.90;;;;;;5110910;27;20487;-75
2022/05/24 12:23:33;;;;;;;3.47;1.10;;;16.30;99.90;;;;;;5131694;27;20130;-74
2022/05/24 12:26:12;;;;;;;3.20;1.00;;;16.60;99.90;;;;;;5128990;27;20081;-75
2022/05/24 12:28:38;;;;;;;2.08;1.00;;;17.40;99.90;;;;;;5100308;27;20092;-79
2022/05/24 12:31:29;;;;;;;6.18;1.10;;;17.80;99.90;;;;;;5097713;27;20031;-83
2022/05/24 12:34:13;;;;;;;5.28;0.80;;;17.70;99.90;;;;;;5118000;27;20407;-80
2022/05/24 12:36:39;;;;;;;5.32;1.08;;;17.00;99.90;;;;;;5133165;27;20042;-80
2022/05/24 12:39:08;;;;;;;4.93;1.17;;;16.40;99.90;;;;;;5113536;27;20312;-80
2022/05/24 12:41:33;;;;;;;5.63;1.08;;;16.30;99.90;;;;;;5097744;27;20054;-79
2022/05/24 12:44:13;;;;;;;5.25;1.33;;;16.10;99.90;;;;;;5097945;27;20482;-79
2022/05/24 12:46:42;;;;;;;3.45;1.23;;;16.40;99.90;;;;;;5117492;27;20042;-79
2022/05/24 12:49:21;;;;;;;4.57;1.02;;;16.60;99.90;;;;;;5131859;27;20162;-80
2022/05/24 12:51:52;;;;;;;4.03;1.20;;;17.10;99.90;;;;;;5096029;27;20085;-80
2022/05/24 12:54:26;;;;;;;5.72;1.17;;;17.60;99.90;;;;;;5113673;27;20121;-80
2022/05/24 12:57:00;;;;;;;3.72;1.40;;;17.70;99.90;;;;;;5132630;27;20507;-80
2022/05/24 12:59:34;;;;;;;5.45;1.10;;;17.80;99.90;;;;;;5097074;27;20047;-81
2022/05/24 13:02:15;;;;;;;5.82;1.15;;;17.70;99.90;;;;;;5114576;28;20046;-80
2022/05/24 13:04:41;;;;;;;8.57;1.30;;;17.40;99.90;;;;;;5113723;28;20110;-80
2022/05/24 13:07:29;;;;;;;7.10;1.40;;;17.10;99.90;;;;;;5096794;27;20142;-80
2022/05/24 13:09:55;;;;;;;3.17;0.98;;;17.30;99.90;;;;;;5095828;27;20046;-80
2022/05/24 13:12:21;;;;;;;3.25;1.20;;;17.30;99.90;;;;;;5128907;27;20047;-81
2022/05/24 13:15:03;;;;;;;5.88;0.75;;;17.00;99.90;;;;;;5134215;27;20047;-80
2022/05/24 13:17:37;;;;;;;4.32;1.00;;;16.90;99.90;;;;;;5116002;28;20038;-80
2022/05/24 13:20:08;;;;;;;5.93;0.90;;;16.80;99.90;;;;;;5116216;28;20043;-80
2022/05/24 13:22:45;;;;;;;3.33;0.60;;;17.20;99.90;;;;;;5104465;28;20112;-80
2022/05/24 13:25:26;;;;;;;3.05;0.88;;;17.70;99.90;;;;;;5104851;28;20126;-80
2022/05/24 13:27:59;;;;;;;3.60;0.90;;;18.30;99.90;;;;;;5121117;28;20126;-80
2022/05/24 13:33:33;;;;;;;4.53;1.02;;;17.90;99.90;;;;;;5143935;28;20107;-79
2022/05/24 13:36:20;;;;;;;3.58;1.17;;;17.60;99.90;;;;;;5122717;28;20043;-79
2022/05/24 13:39:17;;;;;;;3.35;0.77;;;17.40;99.90;;;;;;5113537;28;20046;-80
2022/05/24 13:41:53;;;;;;;4.20;1.33;;;17.10;99.90;;;;;;5007603;28;20045;-79